Time;durP1;ratioP1;P1;durP2;ratioP2;P2;SDS_P1;SDS_P2;PMS_P1;PMS_P2;Temp;Humidity;BMP_temperature;BMP_pressure;BME280_temperature;BME280_humidity;BME280_pressure;Samples;Min_cycle;Max_cycle;Signal;HPM_P1;HPM_P2
2023/03/03 00:01:36;;;;;;;82.07;45.43;;;;;;;;;;5016600;28;20183;-69
2023/03/03 00:04:01;;;;;;;76.03;40.70;;;;;;;;;;5034042;28;20206;-70
2023/03/03 00:06:29;;;;;;;75.67;41.97;;;;;;;;;;5016386;28;20209;-69
2023/03/03 00:08:55;;;;;;;92.83;52.40;;;;;;;;;;5015961;28;20210;-71
2023/03/03 00:11:21;;;;;;;94.47;48.50;;;;;;;;;;5033846;28;20410;-69
2023/03/03 00:13:54;;;;;;;86.93;50.63;;;;;;;;;;5034549;28;20199;-70
2023/03/03 00:16:37;;;;;;;83.90;47.40;;;;;;;;;;5016783;28;20510;-70
2023/03/03 00:19:03;;;;;;;77.83;43.43;;;;;;;;;;5016675;28;20948;-69
2023/03/03 00:21:39;;;;;;;79.47;45.33;;;;;;;;;;5033831;28;20472;-72
2023/03/03 00:24:15;;;;;;;78.47;44.87;;;;;;;;;;5015929;28;20540;-69
2023/03/03 00:26:43;;;;;;;83.17;46.23;;;;;;;;;;5016205;28;20468;-69
2023/03/03 00:29:26;;;;;;;86.30;49.57;;;;;;;;;;5033865;28;20499;-69
2023/03/03 00:31:52;;;;;;;76.93;43.10;;;;;;;;;;5016714;28;20421;-70
2023/03/03 00:34:19;;;;;;;76.50;44.13;;;;;;;;;;5019561;28;20457;-69
2023/03/03 00:36:45;;;;;;;77.07;41.63;;;;;;;;;;5037600;28;20179;-70
2023/03/03 00:39:19;;;;;;;75.40;43.23;;;;;;;;;;5037816;28;20577;-69
2023/03/03 00:41:45;;;;;;;73.63;45.53;;;;;;;;;;5019341;28;20907;-71
2023/03/03 00:44:29;;;;;;;77.20;45.13;;;;;;;;;;5037431;28;20528;-70
2023/03/03 00:46:56;;;;;;;64.00;38.37;;;;;;;;;;5037596;28;20420;-69
2023/03/03 00:49:26;;;;;;;69.27;41.83;;;;;;;;;;5038458;28;20510;-70
2023/03/03 00:51:53;;;;;;;63.17;38.20;;;;;;;;;;5048837;28;20414;-71
2023/03/03 00:54:19;;;;;;;66.43;39.30;;;;;;;;;;5037895;28;21026;-69
2023/03/03 00:56:45;;;;;;;61.63;37.30;;;;;;;;;;5033245;28;20771;-69
2023/03/03 00:59:11;;;;;;;67.63;38.60;;;;;;;;;;5038643;28;20427;-69
2023/03/03 01:01:37;;;;;;;63.70;36.57;;;;;;;;;;5037910;28;20254;-69
2023/03/03 01:04:03;;;;;;;54.03;30.67;;;;;;;;;;5036927;28;20195;-69
2023/03/03 01:06:29;;;;;;;64.07;34.93;;;;;;;;;;5019184;28;20191;-69
2023/03/03 01:08:56;;;;;;;63.57;37.03;;;;;;;;;;5018947;28;20709;-70
2023/03/03 01:11:27;;;;;;;55.10;32.00;;;;;;;;;;5018912;28;20182;-69
2023/03/03 01:13:53;;;;;;;61.80;35.90;;;;;;;;;;5036398;28;20429;-69
2023/03/03 01:16:20;;;;;;;66.03;39.10;;;;;;;;;;5018754;28;20444;-69
2023/03/03 01:18:46;;;;;;;41.10;23.17;;;;;;;;;;5018521;28;20912;-69
2023/03/03 01:21:12;;;;;;;40.30;20.23;;;;;;;;;;5018985;28;20505;-69
2023/03/03 01:23:38;;;;;;;55.13;33.53;;;;;;;;;;5019278;28;20479;-70
2023/03/03 01:26:04;;;;;;;54.90;33.67;;;;;;;;;;5036156;28;20176;-69
2023/03/03 01:28:31;;;;;;;38.30;21.13;;;;;;;;;;5018303;28;20418;-69
2023/03/03 01:31:02;;;;;;;63.63;38.53;;;;;;;;;;5018139;28;20773;-69
2023/03/03 01:33:28;;;;;;;70.83;40.93;;;;;;;;;;5036021;28;20878;-70
2023/03/03 01:35:54;;;;;;;64.37;37.43;;;;;;;;;;5036620;28;20402;-69
2023/03/03 01:38:20;;;;;;;67.27;37.63;;;;;;;;;;5035888;28;20171;-69
2023/03/03 01:40:52;;;;;;;69.13;41.87;;;;;;;;;;5017963;28;20187;-69
2023/03/03 01:43:18;;;;;;;72.60;41.50;;;;;;;;;;5035686;28;20237;-70
2023/03/03 01:45:43;;;;;;;75.93;43.13;;;;;;;;;;5035606;28;20417;-70
2023/03/03 01:48:18;;;;;;;70.87;37.50;;;;;;;;;;5035968;28;20192;-69
2023/03/03 01:50:47;;;;;;;74.07;44.10;;;;;;;;;;5036028;28;20190;-69
2023/03/03 01:53:22;;;;;;;73.60;38.43;;;;;;;;;;5036149;28;20437;-69
2023/03/03 01:55:49;;;;;;;74.50;42.80;;;;;;;;;;5051315;28;20930;-69
2023/03/03 01:58:15;;;;;;;80.63;45.20;;;;;;;;;;5047374;28;20826;-69
2023/03/03 02:00:43;;;;;;;81.57;44.27;;;;;;;;;;5047148;28;20410;-70
2023/03/03 02:03:09;;;;;;;90.90;49.53;;;;;;;;;;5029470;28;20210;-69
2023/03/03 02:05:35;;;;;;;90.23;48.30;;;;;;;;;;5044278;28;20410;-70
2023/03/03 02:08:02;;;;;;;81.90;44.73;;;;;;;;;;5046525;28;20493;-69
2023/03/03 02:10:28;;;;;;;90.60;51.00;;;;;;;;;;5027862;28;20462;-70
2023/03/03 02:12:58;;;;;;;88.40;46.50;;;;;;;;;;5037383;28;20892;-70
2023/03/03 02:15:23;;;;;;;74.77;43.47;;;;;;;;;;5035341;28;20442;-69
2023/03/03 02:17:52;;;;;;;75.07;40.07;;;;;;;;;;5035419;28;20425;-70
2023/03/03 02:20:18;;;;;;;54.70;30.97;;;;;;;;;;5035335;28;20175;-69
2023/03/03 02:22:47;;;;;;;68.03;40.47;;;;;;;;;;5035329;28;20406;-70
2023/03/03 02:25:18;;;;;;;57.17;29.33;;;;;;;;;;5035481;28;20179;-69
2023/03/03 02:27:44;;;;;;;70.47;40.60;;;;;;;;;;5035454;28;20756;-70
2023/03/03 02:30:13;;;;;;;52.00;29.23;;;;;;;;;;5034897;28;20457;-71
2023/03/03 02:32:39;;;;;;;81.07;46.13;;;;;;;;;;5017575;28;20191;-70
2023/03/03 02:35:24;;;;;;;75.57;42.03;;;;;;;;;;5034595;28;20453;-70
2023/03/03 02:37:51;;;;;;;85.53;45.73;;;;;;;;;;5035178;28;20159;-71
2023/03/03 02:40:21;;;;;;;94.63;50.00;;;;;;;;;;5017351;28;20453;-70
2023/03/03 02:42:48;;;;;;;85.27;45.57;;;;;;;;;;5035682;28;20398;-71
2023/03/03 02:45:14;;;;;;;80.93;46.17;;;;;;;;;;5035552;28;20418;-70
2023/03/03 02:47:40;;;;;;;83.43;49.47;;;;;;;;;;5017514;28;20799;-70
2023/03/03 02:50:06;;;;;;;84.23;47.77;;;;;;;;;;5034711;28;20209;-70
2023/03/03 02:52:32;;;;;;;90.73;47.33;;;;;;;;;;5017286;28;20229;-70
2023/03/03 02:54:58;;;;;;;82.63;46.03;;;;;;;;;;5034176;28;20430;-70
2023/03/03 02:57:24;;;;;;;81.13;44.10;;;;;;;;;;5034487;28;20179;-69
2023/03/03 02:59:50;;;;;;;80.13;44.40;;;;;;;;;;5034530;28;20189;-70
2023/03/03 03:02:18;;;;;;;91.30;48.83;;;;;;;;;;5016631;28;20301;-70
2023/03/03 03:04:44;;;;;;;76.33;39.03;;;;;;;;;;5016586;28;20292;-70
2023/03/03 03:07:10;;;;;;;70.47;38.17;;;;;;;;;;5017118;28;20920;-70
2023/03/03 03:09:36;;;;;;;72.77;36.87;;;;;;;;;;5034295;28;20203;-70
2023/03/03 03:12:02;;;;;;;72.03;38.50;;;;;;;;;;5034991;28;20888;-70
2023/03/03 03:14:28;;;;;;;49.73;24.17;;;;;;;;;;5016774;28;20199;-70
2023/03/03 03:16:54;;;;;;;85.20;45.40;;;;;;;;;;5034281;28;20410;-70
2023/03/03 03:19:20;;;;;;;53.43;22.23;;;;;;;;;;5018401;28;20422;-71
2023/03/03 03:21:46;;;;;;;68.13;30.67;;;;;;;;;;5016732;28;20187;-70
2023/03/03 03:24:12;;;;;;;70.77;31.70;;;;;;;;;;5036249;28;20438;-70
2023/03/03 03:26:38;;;;;;;61.83;26.67;;;;;;;;;;5036916;28;20183;-70
2023/03/03 03:29:05;;;;;;;77.57;33.50;;;;;;;;;;5036371;28;20724;-71
2023/03/03 03:31:30;;;;;;;70.10;35.97;;;;;;;;;;5018613;28;20184;-70
2023/03/03 03:33:56;;;;;;;81.60;37.23;;;;;;;;;;5036270;28;20453;-70
2023/03/03 03:36:22;;;;;;;83.33;40.80;;;;;;;;;;5019902;28;20179;-68
2023/03/03 03:38:48;;;;;;;89.30;42.80;;;;;;;;;;5043737;28;20588;-70
2023/03/03 03:41:14;;;;;;;65.97;31.27;;;;;;;;;;5027278;28;20241;-70
2023/03/03 03:43:40;;;;;;;74.87;36.77;;;;;;;;;;5025691;28;20207;-70
2023/03/03 03:46:07;;;;;;;80.77;39.10;;;;;;;;;;5035344;28;20221;-70
2023/03/03 03:48:33;;;;;;;76.50;35.67;;;;;;;;;;5019132;28;20467;-71
2023/03/03 03:50:59;;;;;;;83.17;42.00;;;;;;;;;;5053145;28;20414;-72
2023/03/03 03:53:25;;;;;;;79.40;40.87;;;;;;;;;;5035325;28;20442;-71
2023/03/03 03:55:51;;;;;;;85.07;43.93;;;;;;;;;;5052781;28;20409;-71
2023/03/03 03:58:17;;;;;;;76.90;39.97;;;;;;;;;;5050782;28;20230;-71
2023/03/03 04:00:44;;;;;;;77.17;39.77;;;;;;;;;;5017001;28;20714;-70
2023/03/03 04:03:10;;;;;;;81.03;42.07;;;;;;;;;;5016023;28;20442;-70
2023/03/03 04:05:36;;;;;;;53.60;24.00;;;;;;;;;;5034357;28;20414;-70
2023/03/03 04:08:03;;;;;;;74.63;33.83;;;;;;;;;;5018999;28;20414;-70
2023/03/03 04:10:29;;;;;;;68.53;34.50;;;;;;;;;;5019909;28;20879;-70
2023/03/03 04:12:55;;;;;;;85.67;39.37;;;;;;;;;;5037472;28;20504;-70
2023/03/03 04:15:21;;;;;;;72.03;36.87;;;;;;;;;;5037463;28;20441;-70
2023/03/03 04:17:47;;;;;;;71.37;35.30;;;;;;;;;;5019989;28;20182;-70
2023/03/03 04:20:14;;;;;;;65.60;35.10;;;;;;;;;;5020303;28;20187;-70
2023/03/03 04:22:40;;;;;;;69.67;34.13;;;;;;;;;;5037430;28;20571;-70
2023/03/03 04:25:06;;;;;;;55.27;26.67;;;;;;;;;;5037649;28;20441;-69
2023/03/03 04:27:33;;;;;;;74.70;34.93;;;;;;;;;;5037492;28;20421;-70
2023/03/03 04:29:59;;;;;;;61.57;33.70;;;;;;;;;;5019431;28;20461;-70
2023/03/03 04:32:25;;;;;;;55.10;27.83;;;;;;;;;;5019707;28;20413;-70
2023/03/03 04:34:51;;;;;;;65.90;34.67;;;;;;;;;;5037334;28;20282;-69
2023/03/03 04:37:17;;;;;;;64.27;34.67;;;;;;;;;;5037866;28;20630;-70
2023/03/03 04:39:43;;;;;;;57.67;30.93;;;;;;;;;;5038152;28;20238;-69
2023/03/03 04:42:08;;;;;;;60.83;32.87;;;;;;;;;;5037942;28;20230;-70
2023/03/03 04:44:34;;;;;;;64.30;31.33;;;;;;;;;;5037106;28;20249;-70
2023/03/03 04:47:00;;;;;;;67.07;34.43;;;;;;;;;;5037391;28;20283;-70
2023/03/03 04:49:26;;;;;;;62.30;31.87;;;;;;;;;;5037231;28;20199;-70
2023/03/03 04:51:52;;;;;;;73.30;37.90;;;;;;;;;;5037232;28;20233;-70
2023/03/03 04:54:18;;;;;;;75.27;36.50;;;;;;;;;;5037313;28;20195;-71
2023/03/03 04:56:44;;;;;;;75.80;37.40;;;;;;;;;;5019442;28;20175;-70
2023/03/03 04:59:10;;;;;;;73.93;34.93;;;;;;;;;;5037182;28;20176;-70
2023/03/03 05:01:36;;;;;;;64.93;33.77;;;;;;;;;;5036916;28;20190;-70
2023/03/03 05:04:02;;;;;;;65.73;33.90;;;;;;;;;;5037297;28;20270;-70
2023/03/03 05:06:28;;;;;;;71.30;35.17;;;;;;;;;;5037103;28;20233;-70
2023/03/03 05:08:54;;;;;;;76.37;36.53;;;;;;;;;;5037485;28;20492;-70
2023/03/03 05:11:20;;;;;;;85.97;39.37;;;;;;;;;;5036707;28;20410;-70
2023/03/03 05:13:46;;;;;;;82.70;38.43;;;;;;;;;;5019184;28;20207;-70
2023/03/03 05:16:12;;;;;;;85.47;38.03;;;;;;;;;;5036680;28;20709;-70
2023/03/03 05:18:38;;;;;;;95.57;41.53;;;;;;;;;;5017971;28;20637;-70
2023/03/03 05:21:04;;;;;;;100.70;45.47;;;;;;;;;;5019291;28;20425;-70
2023/03/03 05:23:30;;;;;;;98.17;42.90;;;;;;;;;;5018965;28;20230;-70
2023/03/03 05:25:56;;;;;;;105.33;47.37;;;;;;;;;;5037036;28;20904;-70
2023/03/03 05:28:22;;;;;;;98.90;45.57;;;;;;;;;;5018572;28;20195;-70
2023/03/03 05:30:49;;;;;;;90.60;38.87;;;;;;;;;;5036785;28;20214;-69
2023/03/03 05:33:15;;;;;;;99.23;46.33;;;;;;;;;;5036545;28;20464;-70
2023/03/03 05:35:41;;;;;;;97.20;43.77;;;;;;;;;;5018684;28;20414;-71
2023/03/03 05:38:07;;;;;;;100.27;45.47;;;;;;;;;;5029707;23;21059;-67
2023/03/03 05:40:33;;;;;;;102.07;47.93;;;;;;;;;;5016987;28;20662;-67
2023/03/03 05:42:59;;;;;;;102.17;46.77;;;;;;;;;;5018218;28;20179;-67
2023/03/03 05:45:25;;;;;;;98.57;45.13;;;;;;;;;;5021047;28;20187;-66
2023/03/03 05:47:51;;;;;;;99.30;49.00;;;;;;;;;;5018901;28;20211;-65
2023/03/03 05:50:18;;;;;;;100.83;46.47;;;;;;;;;;5019258;28;20275;-66
2023/03/03 05:52:44;;;;;;;101.93;48.73;;;;;;;;;;5016278;28;20417;-67
2023/03/03 05:55:10;;;;;;;99.07;43.77;;;;;;;;;;5016747;28;20410;-66
2023/03/03 05:57:36;;;;;;;96.93;46.23;;;;;;;;;;5014740;28;20196;-69
2023/03/03 06:00:04;;;;;;;99.40;47.13;;;;;;;;;;5016103;28;20434;-66
2023/03/03 06:02:30;;;;;;;110.00;47.07;;;;;;;;;;5015833;28;20677;-66
2023/03/03 06:04:56;;;;;;;92.67;43.03;;;;;;;;;;5014404;28;20434;-68
2023/03/03 06:07:22;;;;;;;89.53;41.37;;;;;;;;;;5015332;28;20283;-68
2023/03/03 06:09:48;;;;;;;84.30;39.63;;;;;;;;;;5015210;28;20472;-69
2023/03/03 06:12:14;;;;;;;103.40;48.77;;;;;;;;;;5015456;28;20176;-69
2023/03/03 06:14:40;;;;;;;103.40;48.00;;;;;;;;;;5015407;28;20259;-66
2023/03/03 06:17:06;;;;;;;109.70;50.13;;;;;;;;;;5015408;28;20477;-66
2023/03/03 06:19:32;;;;;;;91.43;46.67;;;;;;;;;;5015510;28;20176;-67
2023/03/03 06:21:58;;;;;;;97.43;46.47;;;;;;;;;;5015190;28;20234;-67
2023/03/03 06:24:28;;;;;;;92.00;44.07;;;;;;;;;;5013782;28;20238;-67
2023/03/03 06:26:55;;;;;;;99.90;46.87;;;;;;;;;;5015064;28;20160;-67
2023/03/03 06:29:21;;;;;;;91.93;45.20;;;;;;;;;;5015115;28;20872;-68
2023/03/03 06:31:47;;;;;;;91.07;45.73;;;;;;;;;;5013598;28;20506;-67
2023/03/03 06:34:13;;;;;;;78.87;37.90;;;;;;;;;;5014772;28;20218;-67
2023/03/03 06:36:39;;;;;;;91.30;43.83;;;;;;;;;;5014552;28;20548;-65
2023/03/03 06:39:05;;;;;;;92.47;44.87;;;;;;;;;;5033057;28;20649;-67
2023/03/03 06:41:30;;;;;;;82.03;39.83;;;;;;;;;;5034548;28;20175;-69
2023/03/03 06:43:59;;;;;;;84.73;44.53;;;;;;;;;;5034293;28;20191;-68
2023/03/03 06:46:25;;;;;;;80.13;39.87;;;;;;;;;;5017017;28;20187;-66
2023/03/03 06:48:51;;;;;;;74.47;38.00;;;;;;;;;;5034112;28;20541;-67
2023/03/03 06:51:27;;;;;;;86.33;43.47;;;;;;;;;;5034433;28;20887;-68
2023/03/03 06:53:54;;;;;;;78.47;35.87;;;;;;;;;;5034098;28;20183;-66
2023/03/03 06:56:21;;;;;;;72.30;35.00;;;;;;;;;;5033960;28;20406;-69
2023/03/03 06:58:47;;;;;;;88.13;44.30;;;;;;;;;;5034002;28;20480;-66
2023/03/03 07:01:15;;;;;;;91.23;45.13;;;;;;;;;;5034015;28;20413;-67
2023/03/03 07:03:41;;;;;;;92.87;44.77;;;;;;;;;;5034079;28;20247;-67
2023/03/03 07:06:22;;;;;;;87.07;43.67;;;;;;;;;;5016298;28;20944;-67
2023/03/03 07:08:48;;;;;;;93.10;46.43;;;;;;;;;;5015759;28;20202;-67
2023/03/03 07:11:17;;;;;;;100.33;45.97;;;;;;;;;;5033944;28;20415;-67
2023/03/03 07:13:47;;;;;;;95.20;44.43;;;;;;;;;;5033625;28;20406;-68
2023/03/03 07:16:14;;;;;;;92.07;45.67;;;;;;;;;;5033855;28;20406;-67
2023/03/03 07:18:44;;;;;;;87.37;41.13;;;;;;;;;;5016193;28;20442;-66
2023/03/03 07:21:25;;;;;;;89.63;44.90;;;;;;;;;;5016289;28;20410;-67
2023/03/03 07:23:52;;;;;;;84.80;43.50;;;;;;;;;;5015749;28;20414;-67
2023/03/03 07:26:21;;;;;;;91.07;45.97;;;;;;;;;;5015756;28;20433;-67
2023/03/03 07:28:51;;;;;;;90.37;45.30;;;;;;;;;;5015486;28;20983;-67
2023/03/03 07:31:26;;;;;;;93.13;44.13;;;;;;;;;;5033448;28;20414;-67
2023/03/03 07:33:52;;;;;;;87.27;42.57;;;;;;;;;;5015658;28;20406;-67
2023/03/03 07:36:24;;;;;;;87.80;45.53;;;;;;;;;;5033687;28;20242;-66
2023/03/03 07:38:54;;;;;;;83.27;39.77;;;;;;;;;;5015481;28;20441;-67
2023/03/03 07:41:22;;;;;;;88.93;43.47;;;;;;;;;;5033417;28;20468;-66
2023/03/03 07:43:53;;;;;;;79.87;36.10;;;;;;;;;;5033219;28;20406;-66
2023/03/03 07:46:26;;;;;;;58.27;28.80;;;;;;;;;;5033861;28;20433;-67
2023/03/03 07:48:53;;;;;;;69.80;29.30;;;;;;;;;;5016159;28;20461;-69
2023/03/03 07:51:27;;;;;;;90.60;38.77;;;;;;;;;;5015629;28;20418;-68
2023/03/03 07:54:00;;;;;;;96.43;46.27;;;;;;;;;;5033930;28;20930;-69
2023/03/03 07:56:28;;;;;;;87.87;39.87;;;;;;;;;;5033516;28;20417;-68
2023/03/03 07:58:55;;;;;;;99.20;46.10;;;;;;;;;;5033190;28;20452;-67
2023/03/03 08:01:41;;;;;;;96.27;43.00;;;;;;;;;;5033331;28;20421;-66
2023/03/03 08:04:13;;;;;;;98.00;44.57;;;;;;;;;;5034053;28;20408;-66
2023/03/03 08:06:47;;;;;;;97.07;45.00;;;;;;;;;;5033374;28;20958;-66
2023/03/03 08:09:19;;;;;;;92.40;40.00;;;;;;;;;;5033333;28;20468;-68
2023/03/03 08:11:53;;;;;;;91.90;43.90;;;;;;;;;;5033286;28;20417;-66
2023/03/03 08:14:24;;;;;;;75.70;34.80;;;;;;;;;;5033401;28;20832;-67
2023/03/03 08:16:50;;;;;;;97.83;45.00;;;;;;;;;;5033598;28;20409;-66
2023/03/03 08:19:17;;;;;;;95.10;45.83;;;;;;;;;;5032837;28;20896;-66
2023/03/03 08:21:43;;;;;;;67.70;30.27;;;;;;;;;;5015348;28;20648;-66
2023/03/03 08:24:09;;;;;;;88.43;41.83;;;;;;;;;;5033137;28;20432;-66
2023/03/03 08:26:35;;;;;;;80.70;37.47;;;;;;;;;;5033344;28;20959;-67
2023/03/03 08:29:01;;;;;;;90.93;44.08;;;;;;;;;;5014166;28;20819;-68
2023/03/03 08:31:28;;;;;;;73.75;40.42;;;;;;;;;;5031892;28;20466;-69
2023/03/03 08:33:54;;;;;;;85.03;40.03;;;;;;;;;;5032965;28;20175;-67
2023/03/03 08:36:20;;;;;;;74.37;33.20;;;;;;;;;;5032831;28;20916;-67
2023/03/03 08:38:46;;;;;;;78.23;36.33;;;;;;;;;;5032649;28;20456;-67
2023/03/03 08:41:12;;;;;;;54.07;21.13;;;;;;;;;;5032841;28;20410;-67
2023/03/03 08:43:38;;;;;;;70.73;33.63;;;;;;;;;;5033060;28;20464;-67
2023/03/03 08:46:05;;;;;;;66.60;29.63;;;;;;;;;;5032922;28;20266;-67
2023/03/03 08:48:31;;;;;;;69.53;32.27;;;;;;;;;;5032935;28;20426;-69
2023/03/03 08:50:57;;;;;;;72.33;35.60;;;;;;;;;;5033141;28;20995;-67
2023/03/03 08:53:23;;;;;;;66.53;32.73;;;;;;;;;;5015224;28;20421;-67
2023/03/03 08:55:50;;;;;;;70.80;34.87;;;;;;;;;;5018602;28;20422;-67
2023/03/03 08:58:17;;;;;;;54.10;23.63;;;;;;;;;;5036135;28;20789;-67
2023/03/03 09:00:43;;;;;;;67.13;29.40;;;;;;;;;;5036258;28;20422;-68
2023/03/03 09:03:09;;;;;;;68.43;32.90;;;;;;;;;;5036515;28;20417;-67
2023/03/03 09:05:36;;;;;;;69.43;32.03;;;;;;;;;;5036217;28;20420;-67
2023/03/03 09:08:03;;;;;;;77.50;37.73;;;;;;;;;;5018572;28;20445;-68
2023/03/03 09:10:30;;;;;;;69.70;34.40;;;;;;;;;;5036507;28;20485;-67
2023/03/03 09:12:57;;;;;;;63.17;30.03;;;;;;;;;;5036183;28;20417;-67
2023/03/03 09:15:23;;;;;;;80.73;36.63;;;;;;;;;;5018105;28;20175;-67
2023/03/03 09:17:49;;;;;;;70.40;33.63;;;;;;;;;;5036070;28;20802;-67
2023/03/03 09:20:21;;;;;;;54.63;26.87;;;;;;;;;;5018654;28;20183;-68
2023/03/03 09:22:48;;;;;;;57.93;30.13;;;;;;;;;;5036212;28;20430;-68
2023/03/03 09:25:21;;;;;;;61.30;29.10;;;;;;;;;;5036183;28;20417;-67
2023/03/03 09:27:47;;;;;;;58.07;27.27;;;;;;;;;;5036081;28;20468;-67
2023/03/03 09:30:25;;;;;;;61.90;29.50;;;;;;;;;;5035925;28;20846;-68
2023/03/03 09:32:52;;;;;;;62.70;30.27;;;;;;;;;;5017977;28;20187;-67
2023/03/03 09:35:36;;;;;;;70.43;34.47;;;;;;;;;;5017793;28;20420;-67
2023/03/03 09:38:10;;;;;;;63.50;32.13;;;;;;;;;;5035315;28;20544;-67
2023/03/03 09:40:45;;;;;;;71.07;31.17;;;;;;;;;;5017832;28;20218;-67
2023/03/03 09:43:17;;;;;;;67.10;32.67;;;;;;;;;;5017727;28;20476;-68
2023/03/03 09:45:47;;;;;;;60.97;27.73;;;;;;;;;;5017600;28;20403;-66
2023/03/03 09:48:25;;;;;;;59.87;30.40;;;;;;;;;;5017727;28;20444;-67
2023/03/03 09:51:00;;;;;;;70.73;33.23;;;;;;;;;;5017423;28;20445;-65
2023/03/03 09:53:50;;;;;;;69.57;33.93;;;;;;;;;;5035332;28;20551;-65
2023/03/03 09:56:21;;;;;;;66.43;31.80;;;;;;;;;;5035550;28;20164;-65
2023/03/03 09:59:00;;;;;;;78.13;36.03;;;;;;;;;;5017865;28;20438;-67
2023/03/03 10:01:31;;;;;;;75.37;35.13;;;;;;;;;;5017653;28;20422;-67
2023/03/03 10:04:06;;;;;;;95.40;43.97;;;;;;;;;;5036252;28;20829;-67
2023/03/03 10:06:37;;;;;;;88.47;42.07;;;;;;;;;;5017828;28;20417;-67
2023/03/03 10:09:12;;;;;;;96.40;44.17;;;;;;;;;;5035200;28;20219;-67
2023/03/03 10:11:44;;;;;;;86.00;40.23;;;;;;;;;;5017614;28;20232;-67
2023/03/03 10:14:10;;;;;;;72.30;36.00;;;;;;;;;;5017316;28;20278;-65
2023/03/03 10:16:39;;;;;;;76.93;34.70;;;;;;;;;;5017621;28;20410;-65
2023/03/03 10:19:14;;;;;;;73.13;33.27;;;;;;;;;;5035778;28;20183;-67
2023/03/03 10:21:47;;;;;;;84.33;37.70;;;;;;;;;;5035556;28;20855;-65
2023/03/03 10:24:39;;;;;;;72.47;36.30;;;;;;;;;;5035146;28;20206;-65
2023/03/03 10:27:05;;;;;;;79.10;36.50;;;;;;;;;;5014377;28;20218;-66
2023/03/03 10:29:35;;;;;;;92.73;40.53;;;;;;;;;;5016988;28;20219;-66
2023/03/03 10:32:20;;;;;;;79.90;37.17;;;;;;;;;;5016945;28;20179;-67
2023/03/03 10:35:04;;;;;;;75.17;34.30;;;;;;;;;;5034862;28;20182;-68
2023/03/03 10:37:36;;;;;;;83.37;39.27;;;;;;;;;;5034608;28;20685;-66
2023/03/03 10:40:12;;;;;;;73.10;35.80;;;;;;;;;;5016976;28;20684;-66
2023/03/03 10:42:48;;;;;;;71.93;36.30;;;;;;;;;;5034804;28;20268;-67
2023/03/03 10:45:33;;;;;;;69.87;35.43;;;;;;;;;;5016736;28;20220;-66
2023/03/03 10:48:18;;;;;;;75.90;33.03;;;;;;;;;;5034489;28;20206;-66
2023/03/03 10:50:47;;;;;;;75.47;36.50;;;;;;;;;;5034130;28;20463;-66
2023/03/03 10:53:22;;;;;;;71.20;33.93;;;;;;;;;;5017105;28;20513;-67
2023/03/03 10:55:48;;;;;;;69.53;33.60;;;;;;;;;;5034265;28;20962;-66
2023/03/03 10:58:27;;;;;;;61.77;29.83;;;;;;;;;;5034331;28;20438;-67
2023/03/03 11:01:02;;;;;;;64.13;32.30;;;;;;;;;;5016386;28;20948;-67
2023/03/03 11:03:28;;;;;;;62.53;31.07;;;;;;;;;;5034565;28;20422;-67
2023/03/03 11:06:00;;;;;;;61.90;32.60;;;;;;;;;;5016251;28;20425;-66
2023/03/03 11:08:28;;;;;;;77.83;40.50;;;;;;;;;;5016319;28;20672;-66
2023/03/03 11:11:01;;;;;;;61.80;28.60;;;;;;;;;;5016326;28;20218;-67
2023/03/03 11:13:27;;;;;;;56.83;27.93;;;;;;;;;;5034245;28;20802;-68
2023/03/03 11:15:59;;;;;;;47.83;19.97;;;;;;;;;;5033783;28;20245;-66
2023/03/03 11:18:25;;;;;;;59.10;28.87;;;;;;;;;;5033332;28;20441;-67
2023/03/03 11:21:10;;;;;;;48.90;24.53;;;;;;;;;;5016266;28;20804;-66
2023/03/03 11:23:54;;;;;;;58.63;25.90;;;;;;;;;;5034025;28;20641;-68
2023/03/03 11:26:23;;;;;;;65.20;30.53;;;;;;;;;;5035204;28;20417;-67
2023/03/03 11:29:08;;;;;;;66.13;32.73;;;;;;;;;;5036966;28;20846;-66
2023/03/03 11:31:34;;;;;;;64.30;29.70;;;;;;;;;;5035802;28;20489;-67
2023/03/03 11:34:05;;;;;;;61.93;30.27;;;;;;;;;;5017937;28;20434;-67
2023/03/03 11:36:50;;;;;;;67.40;33.20;;;;;;;;;;5015821;28;20259;-67
2023/03/03 11:39:18;;;;;;;65.47;32.33;;;;;;;;;;5033499;28;20213;-67
2023/03/03 11:41:50;;;;;;;62.93;30.67;;;;;;;;;;5015803;28;20190;-67
2023/03/03 11:44:26;;;;;;;62.37;30.37;;;;;;;;;;5033377;28;20187;-67
2023/03/03 11:47:11;;;;;;;64.53;31.47;;;;;;;;;;5033786;28;20617;-66
2023/03/03 11:49:40;;;;;;;62.80;29.03;;;;;;;;;;5015452;28;20278;-67
2023/03/03 11:52:27;;;;;;;55.90;26.20;;;;;;;;;;5056680;22;20449;-71
2023/03/03 11:54:57;;;;;;;55.83;25.07;;;;;;;;;;5036133;28;20187;-70
2023/03/03 11:57:35;;;;;;;49.97;23.60;;;;;;;;;;5036782;28;20274;-71
2023/03/03 12:00:07;;;;;;;58.27;30.60;;;;;;;;;;5037118;28;20183;-71
2023/03/03 12:02:35;;;;;;;60.63;32.10;;;;;;;;;;5036018;28;20198;-71
2023/03/03 12:05:08;;;;;;;53.97;31.17;;;;;;;;;;5036105;28;20186;-70
2023/03/03 12:07:34;;;;;;;63.23;35.20;;;;;;;;;;5034531;28;20900;-73
2023/03/03 12:10:22;;;;;;;55.70;31.53;;;;;;;;;;5035078;28;20342;-70
2023/03/03 12:12:52;;;;;;;61.50;30.70;;;;;;;;;;5017689;28;20230;-71
2023/03/03 12:15:24;;;;;;;62.73;33.40;;;;;;;;;;5017504;28;20179;-70
2023/03/03 12:17:55;;;;;;;55.87;32.73;;;;;;;;;;5018074;28;20189;-71
2023/03/03 12:20:39;;;;;;;52.00;29.50;;;;;;;;;;5018219;28;20179;-71
2023/03/03 12:23:24;;;;;;;45.20;24.50;;;;;;;;;;5018966;28;20274;-71
2023/03/03 12:26:10;;;;;;;44.40;24.60;;;;;;;;;;5018325;28;20183;-71
2023/03/03 12:28:54;;;;;;;48.60;28.77;;;;;;;;;;5019891;28;20185;-72
2023/03/03 12:31:38;;;;;;;47.00;25.33;;;;;;;;;;5039319;28;20673;-72
2023/03/03 12:34:11;;;;;;;54.93;30.43;;;;;;;;;;5020908;28;20252;-71
2023/03/03 12:36:55;;;;;;;58.67;31.37;;;;;;;;;;5039794;28;20175;-70
2023/03/03 12:39:21;;;;;;;57.40;31.43;;;;;;;;;;5038263;28;20199;-70
2023/03/03 12:42:00;;;;;;;60.67;32.43;;;;;;;;;;5020508;28;20587;-71
2023/03/03 12:44:34;;;;;;;57.50;33.27;;;;;;;;;;5039249;28;20159;-70
2023/03/03 12:47:09;;;;;;;54.27;26.63;;;;;;;;;;5020828;28;20641;-71
2023/03/03 12:49:50;;;;;;;50.07;30.23;;;;;;;;;;5038160;28;20202;-70
2023/03/03 12:52:25;;;;;;;54.00;31.30;;;;;;;;;;5020383;28;20211;-70
2023/03/03 12:54:58;;;;;;;46.67;23.13;;;;;;;;;;5038541;28;20159;-71
2023/03/03 12:57:29;;;;;;;47.27;26.67;;;;;;;;;;5038703;28;20171;-70
2023/03/03 12:59:55;;;;;;;49.60;26.57;;;;;;;;;;5038352;28;20195;-71
2023/03/03 13:02:40;;;;;;;50.60;25.77;;;;;;;;;;5038642;28;20195;-70
2023/03/03 13:05:19;;;;;;;53.67;31.13;;;;;;;;;;5021379;28;20178;-70
2023/03/03 13:07:55;;;;;;;49.13;27.07;;;;;;;;;;5021193;28;20229;-70
2023/03/03 13:10:35;;;;;;;40.80;22.20;;;;;;;;;;5020598;28;20195;-70
2023/03/03 13:13:20;;;;;;;51.40;26.43;;;;;;;;;;5020988;28;20198;-70
2023/03/03 13:15:59;;;;;;;50.77;28.57;;;;;;;;;;5020283;28;20179;-72
2023/03/03 13:18:35;;;;;;;47.47;27.97;;;;;;;;;;5037868;28;20178;-70
2023/03/03 13:21:00;;;;;;;47.70;26.83;;;;;;;;;;5019349;28;20554;-70
2023/03/03 13:23:45;;;;;;;48.07;29.43;;;;;;;;;;5018949;28;20202;-72
2023/03/03 13:26:24;;;;;;;48.83;28.47;;;;;;;;;;5019803;28;20667;-70
2023/03/03 13:28:53;;;;;;;41.47;22.73;;;;;;;;;;5036823;28;20170;-70
2023/03/03 13:31:21;;;;;;;35.83;17.90;;;;;;;;;;5037044;28;20269;-71
2023/03/03 13:33:57;;;;;;;44.17;24.77;;;;;;;;;;5019369;28;20256;-70
2023/03/03 13:36:25;;;;;;;46.87;25.77;;;;;;;;;;5019445;28;20290;-72
2023/03/03 13:38:53;;;;;;;47.03;26.23;;;;;;;;;;5019217;28;20663;-70
2023/03/03 13:41:22;;;;;;;43.20;26.87;;;;;;;;;;5036571;28;20653;-70
2023/03/03 13:43:51;;;;;;;44.17;25.40;;;;;;;;;;5037246;28;20227;-70
2023/03/03 13:46:24;;;;;;;38.50;21.13;;;;;;;;;;5019257;28;20186;-70
2023/03/03 13:48:50;;;;;;;45.20;27.80;;;;;;;;;;5019649;28;20266;-70
2023/03/03 13:51:26;;;;;;;43.23;25.57;;;;;;;;;;5036660;28;20250;-70
2023/03/03 13:54:05;;;;;;;41.63;27.40;;;;;;;;;;5036513;28;20285;-70
2023/03/03 13:56:40;;;;;;;45.63;28.87;;;;;;;;;;5035950;28;20170;-70
2023/03/03 13:59:06;;;;;;;38.37;25.70;;;;;;;;;;5035775;28;20190;-72
2023/03/03 14:01:42;;;;;;;45.40;25.87;;;;;;;;;;5035893;28;20181;-70
2023/03/03 14:04:16;;;;;;;41.43;25.93;;;;;;;;;;5035888;28;20229;-70
2023/03/03 14:06:48;;;;;;;41.30;26.67;;;;;;;;;;5036765;28;20170;-70
2023/03/03 14:09:28;;;;;;;40.27;26.27;;;;;;;;;;5035564;28;20191;-70
2023/03/03 14:12:00;;;;;;;38.07;24.63;;;;;;;;;;5035708;28;20174;-70
2023/03/03 14:14:26;;;;;;;40.13;25.17;;;;;;;;;;5017454;28;20171;-70
2023/03/03 14:16:55;;;;;;;42.43;26.27;;;;;;;;;;5035181;28;20190;-70
2023/03/03 14:19:24;;;;;;;35.60;21.97;;;;;;;;;;5034896;28;20261;-70
2023/03/03 14:21:50;;;;;;;35.53;21.20;;;;;;;;;;5016800;28;20282;-70
2023/03/03 14:24:17;;;;;;;33.67;21.00;;;;;;;;;;5016966;28;20187;-70
2023/03/03 14:26:51;;;;;;;37.60;21.63;;;;;;;;;;5017178;28;20615;-70
2023/03/03 14:29:26;;;;;;;36.13;22.40;;;;;;;;;;5034656;28;20199;-69
2023/03/03 14:31:53;;;;;;;32.30;21.37;;;;;;;;;;5017923;28;20178;-71